Port Imperial New Jersey — WBR3133 — position and weather

sailwx.info

Track history (hours):
 
Tides and Currents Weather Stations Pressure Air Temp Water Temp Dewpoint Dewpoint Depression Visibility Wind Speed Wind Dir Waves Ship Positions

Port Imperial New Jersey

Owner: PORT IMPERIAL FERRY CORP, WEEHAWKEN, NJ. More information available from US FCC via Universal Licensing System and Coast Guard Vessel Documentation Center.

Last reported at 2015-Sep-04 20:33 UTC. Time now 2015-Sep-04 21:03 UTC.
Position N 40°45' W 074°01'.

Length 31 m.

Type: Passenger vessel. MMSI: 366990550.

Date/timePositionNaut miles runAvg speedWind from/ knotsBaromVisibWave heightAir tempDewpointWater temp
2015-Sep-04 20:33N 40°45' W 074°01'3 2.6
2015-Sep-04 19:33N 40°43' W 073°58'3 0.1
2015-Sep-03 23:34N 40°44' W 074°01'2 2.4
2015-Sep-03 22:34N 40°42' W 074°01'0 0.3
2015-Sep-03 21:33N 40°42' W 074°01'2 2.0
2015-Sep-03 20:33N 40°44' W 074°02'0 0.0
2015-Sep-03 19:34N 40°44' W 074°02'0 0.0
2015-Sep-03 18:33N 40°44' W 074°02'3 2.6
2015-Sep-03 17:33N 40°47' W 074°01'1 1.0
2015-Sep-03 16:33N 40°46' W 074°00'0 0.2
2015-Sep-03 15:33N 40°45' W 074°01'0 0.2
2015-Sep-03 14:33N 40°46' W 074°00'3 3.5
2015-Sep-03 13:33N 40°42' W 074°00'2 1.9
2015-Sep-03 12:33N 40°44' W 074°01'0 0.2
2015-Sep-03 11:34N 40°44' W 074°01'3 2.7
2015-Sep-03 10:33N 40°46' W 074°01'2 0.2
2015-Sep-02 23:34N 40°44' W 074°01'2 2.4
2015-Sep-02 22:33N 40°42' W 074°01'0 0.3
2015-Sep-02 21:33N 40°42' W 074°01'2 2.0
2015-Sep-02 20:33N 40°44' W 074°02'0 0.0
2015-Sep-02 19:34N 40°44' W 074°02'0 0.0
2015-Sep-02 18:33N 40°44' W 074°02'1 1.3
2015-Sep-02 17:34N 40°45' W 074°01'1 0.6
2015-Sep-02 16:34N 40°46' W 074°00'0 0.2
2015-Sep-02 15:33N 40°46' W 074°00'0 0.2
2015-Sep-02 14:33N 40°46' W 074°00'4 3.8
2015-Sep-02 13:33N 40°42' W 074°00'2 1.8
2015-Sep-02 12:34N 40°44' W 074°01'0 0.3
2015-Sep-02 11:34N 40°44' W 074°01'2 2.5
2015-Sep-02 10:33N 40°46' W 074°01'2 0.2
2015-Sep-01 23:33N 40°44' W 074°01'2 2.5
2015-Sep-01 22:33N 40°42' W 074°01'0 0.2
2015-Sep-01 21:33N 40°42' W 074°01'2 2.2
2015-Sep-01 20:33N 40°44' W 074°02'0 0.0
2015-Sep-01 19:34N 40°44' W 074°02'0 0.0
2015-Sep-01 18:33N 40°44' W 074°02'2 2.3
2015-Sep-01 17:34N 40°46' W 074°01'0 0.0
2015-Sep-01 14:23N 40°46' W 074°01'3 3.2
2015-Sep-01 13:34N 40°44' W 074°01'1 0.6
2015-Sep-01 12:33N 40°43' W 074°01'1 1.3
2015-Sep-01 11:33N 40°42' W 074°00'2 1.7
2015-Sep-01 10:34N 40°44' W 074°01'2 0.2
2015-Aug-31 23:33N 40°42' W 074°01'2 2.2
2015-Aug-31 22:34N 40°44' W 074°02'2 2.2
2015-Aug-31 21:34N 40°42' W 074°01'0 0.2
2015-Aug-31 20:33N 40°42' W 074°01'2 2.1
2015-Aug-31 19:33N 40°44' W 074°02'2 2.2
2015-Aug-31 18:33N 40°42' W 074°01'1 0.1
2015-Aug-31 13:34N 40°42' W 074°00'2 1.6
2015-Aug-31 12:33N 40°44' W 074°01'0 0.3
2015-Aug-31 11:33N 40°43' W 074°01'0 0.1
2015-Aug-31 10:33N 40°43' W 074°01'1 0.1
2015-Aug-31 01:18N 40°44' W 074°02'3 4.0
2015-Aug-31 00:33N 40°43' W 073°58'0 0.3
2015-Aug-30 23:34N 40°43' W 073°58'0 0.2
2015-Aug-30 22:33N 40°43' W 073°58'0 0.1
2015-Aug-30 21:33N 40°43' W 073°58'2 1.7
2015-Aug-30 20:34N 40°42' W 073°60'2 2.2
2015-Aug-30 19:34N 40°44' W 073°58'3 2.5
2015-Aug-30 18:34N 40°42' W 074°00'1 0.5
2015-Aug-30 17:33N 40°42' W 073°60'2 1.6
2015-Aug-30 16:33N 40°43' W 074°02'1 0.9
2015-Aug-30 15:33N 40°43' W 074°01'3 2.8
2015-Aug-30 14:33N 40°46' W 074°01'0 0.0
2015-Aug-30 01:29N 40°46' W 074°01'4 4.0
2015-Aug-30 00:33N 40°43' W 073°58'0 0.2
2015-Aug-29 23:33N 40°43' W 073°58'0 0.2
2015-Aug-29 22:33N 40°43' W 073°58'0 0.1
2015-Aug-29 21:33N 40°43' W 073°58'2 1.7
2015-Aug-29 20:33N 40°42' W 073°60'2 2.1
2015-Aug-29 19:34N 40°44' W 073°58'3 2.5
2015-Aug-29 18:33N 40°42' W 074°00'3 2.9
2015-Aug-29 17:33N 40°45' W 073°58'2 2.4
2015-Aug-29 16:33N 40°44' W 074°01'1 0.7
2015-Aug-29 15:33N 40°45' W 074°01'1 1.1
2015-Aug-29 14:33N 40°46' W 074°00'1 0.7
2015-Aug-29 13:33N 40°46' W 074°01'2 0.1
2015-Aug-28 23:33N 40°45' W 074°01'3 2.9
2015-Aug-28 22:33N 40°42' W 074°01'1 0.5
2015-Aug-28 21:33N 40°42' W 074°01'2 1.9
2015-Aug-28 20:33N 40°44' W 074°02'0 0.0
2015-Aug-28 19:33N 40°44' W 074°02'0 0.0
2015-Aug-28 18:33N 40°44' W 074°02'2 2.3
2015-Aug-28 17:33N 40°46' W 074°01'0 0.3
2015-Aug-28 16:33N 40°46' W 074°01'1 1.0
2015-Aug-28 15:33N 40°45' W 074°01'1 1.3
2015-Aug-28 14:33N 40°46' W 074°01'4 4.1
2015-Aug-28 13:33N 40°42' W 074°00'2 1.6
2015-Aug-28 12:33N 40°44' W 074°01'0 0.2
2015-Aug-28 11:34N 40°44' W 074°01'1 0.1
2015-Aug-27 23:33N 40°45' W 074°01'3 3.0
2015-Aug-27 22:33N 40°42' W 074°01'1 0.8
2015-Aug-27 21:33N 40°43' W 074°01'2 1.6
2015-Aug-27 20:33N 40°44' W 074°02'0 0.0
2015-Aug-27 19:33N 40°44' W 074°02'0 0.0
2015-Aug-27 18:33N 40°44' W 074°02'2 1.8
2015-Aug-27 17:34N 40°46' W 074°00'0 0.0
2015-Aug-27 16:33N 40°46' W 074°00'0 0.0
2015-Aug-27 15:33N 40°46' W 074°00'1 0.8
2015-Aug-27 14:33N 40°46' W 074°01'1 0.9
2015-Aug-27 13:33N 40°45' W 074°01'0 0.2
2015-Aug-27 12:33N 40°46' W 074°01'0 0.2
2015-Aug-27 11:33N 40°45' W 074°01'1 1.0
2015-Aug-27 10:33N 40°46' W 074°01'2 0.1
2015-Aug-26 23:34N 40°45' W 074°01'3 2.9
2015-Aug-26 22:33N 40°42' W 074°01'1 0.6
2015-Aug-26 21:33N 40°42' W 074°01'2 1.7
2015-Aug-26 20:34N 40°44' W 074°02'0 0.0
2015-Aug-26 19:33N 40°44' W 074°02'0 0.0
2015-Aug-26 18:33N 40°44' W 074°02'2 0.9
2015-Aug-26 16:33N 40°46' W 074°00'0 0.0
2015-Aug-26 15:33N 40°46' W 074°00'1 0.8
2015-Aug-26 14:33N 40°46' W 074°01'1 0.7
2015-Aug-26 13:33N 40°46' W 074°01'1 0.5
2015-Aug-26 12:33N 40°46' W 074°01'0 0.4
2015-Aug-26 11:33N 40°45' W 074°01'0 0.0
2015-Aug-25 23:34N 40°45' W 074°01'0 0.1
2015-Aug-25 22:34N 40°45' W 074°01'0 0.4
2015-Aug-25 21:33N 40°45' W 074°01'  
Track history (hours):
 
Tides and Currents Weather Stations Pressure Air Temp Water Temp Dewpoint Dewpoint Depression Visibility Wind Speed Wind Dir Waves Ship Positions

Port Imperial New Jersey

Owner: PORT IMPERIAL FERRY CORP, WEEHAWKEN, NJ. More information available from US FCC via Universal Licensing System and Coast Guard Vessel Documentation Center.

Last reported at 2015-Sep-04 20:33 UTC. Time now 2015-Sep-04 21:03 UTC.
Position N 40°45' W 074°01'.

Length 31 m.

Type: Passenger vessel. MMSI: 366990550.

Date/timePositionNaut miles runAvg speedWind from/ knotsBaromVisibWave heightAir tempDewpointWater temp
2015-Sep-04 20:33N 40°45' W 074°01'3 2.6
2015-Sep-04 19:33N 40°43' W 073°58'3 0.1
2015-Sep-03 23:34N 40°44' W 074°01'2 2.4
2015-Sep-03 22:34N 40°42' W 074°01'0 0.3
2015-Sep-03 21:33N 40°42' W 074°01'2 2.0
2015-Sep-03 20:33N 40°44' W 074°02'0 0.0
2015-Sep-03 19:34N 40°44' W 074°02'0 0.0
2015-Sep-03 18:33N 40°44' W 074°02'3 2.6
2015-Sep-03 17:33N 40°47' W 074°01'1 1.0
2015-Sep-03 16:33N 40°46' W 074°00'0 0.2
2015-Sep-03 15:33N 40°45' W 074°01'0 0.2
2015-Sep-03 14:33N 40°46' W 074°00'3 3.5
2015-Sep-03 13:33N 40°42' W 074°00'2 1.9
2015-Sep-03 12:33N 40°44' W 074°01'0 0.2
2015-Sep-03 11:34N 40°44' W 074°01'3 2.7
2015-Sep-03 10:33N 40°46' W 074°01'2 0.2
2015-Sep-02 23:34N 40°44' W 074°01'2 2.4
2015-Sep-02 22:33N 40°42' W 074°01'0 0.3
2015-Sep-02 21:33N 40°42' W 074°01'2 2.0
2015-Sep-02 20:33N 40°44' W 074°02'0 0.0
2015-Sep-02 19:34N 40°44' W 074°02'0 0.0
2015-Sep-02 18:33N 40°44' W 074°02'1 1.3
2015-Sep-02 17:34N 40°45' W 074°01'1 0.6
2015-Sep-02 16:34N 40°46' W 074°00'0 0.2
2015-Sep-02 15:33N 40°46' W 074°00'0 0.2
2015-Sep-02 14:33N 40°46' W 074°00'4 3.8
2015-Sep-02 13:33N 40°42' W 074°00'2 1.8
2015-Sep-02 12:34N 40°44' W 074°01'0 0.3
2015-Sep-02 11:34N 40°44' W 074°01'2 2.5
2015-Sep-02 10:33N 40°46' W 074°01'2 0.2
2015-Sep-01 23:33N 40°44' W 074°01'2 2.5
2015-Sep-01 22:33N 40°42' W 074°01'0 0.2
2015-Sep-01 21:33N 40°42' W 074°01'2 2.2
2015-Sep-01 20:33N 40°44' W 074°02'0 0.0
2015-Sep-01 19:34N 40°44' W 074°02'0 0.0
2015-Sep-01 18:33N 40°44' W 074°02'2 2.3
2015-Sep-01 17:34N 40°46' W 074°01'0 0.0
2015-Sep-01 14:23N 40°46' W 074°01'3 3.2
2015-Sep-01 13:34N 40°44' W 074°01'1 0.6
2015-Sep-01 12:33N 40°43' W 074°01'1 1.3
2015-Sep-01 11:33N 40°42' W 074°00'2 1.7
2015-Sep-01 10:34N 40°44' W 074°01'2 0.2
2015-Aug-31 23:33N 40°42' W 074°01'2 2.2
2015-Aug-31 22:34N 40°44' W 074°02'2 2.2
2015-Aug-31 21:34N 40°42' W 074°01'0 0.2
2015-Aug-31 20:33N 40°42' W 074°01'2 2.1
2015-Aug-31 19:33N 40°44' W 074°02'2 2.2
2015-Aug-31 18:33N 40°42' W 074°01'1 0.1
2015-Aug-31 13:34N 40°42' W 074°00'2 1.6
2015-Aug-31 12:33N 40°44' W 074°01'0 0.3
2015-Aug-31 11:33N 40°43' W 074°01'0 0.1
2015-Aug-31 10:33N 40°43' W 074°01'1 0.1
2015-Aug-31 01:18N 40°44' W 074°02'3 4.0
2015-Aug-31 00:33N 40°43' W 073°58'0 0.3
2015-Aug-30 23:34N 40°43' W 073°58'0 0.2
2015-Aug-30 22:33N 40°43' W 073°58'0 0.1
2015-Aug-30 21:33N 40°43' W 073°58'2 1.7
2015-Aug-30 20:34N 40°42' W 073°60'2 2.2
2015-Aug-30 19:34N 40°44' W 073°58'3 2.5
2015-Aug-30 18:34N 40°42' W 074°00'1 0.5
2015-Aug-30 17:33N 40°42' W 073°60'2 1.6
2015-Aug-30 16:33N 40°43' W 074°02'1 0.9
2015-Aug-30 15:33N 40°43' W 074°01'3 2.8
2015-Aug-30 14:33N 40°46' W 074°01'0 0.0
2015-Aug-30 01:29N 40°46' W 074°01'4 4.0
2015-Aug-30 00:33N 40°43' W 073°58'0 0.2
2015-Aug-29 23:33N 40°43' W 073°58'0 0.2
2015-Aug-29 22:33N 40°43' W 073°58'0 0.1
2015-Aug-29 21:33N 40°43' W 073°58'2 1.7
2015-Aug-29 20:33N 40°42' W 073°60'2 2.1
2015-Aug-29 19:34N 40°44' W 073°58'3 2.5
2015-Aug-29 18:33N 40°42' W 074°00'3 2.9
2015-Aug-29 17:33N 40°45' W 073°58'2 2.4
2015-Aug-29 16:33N 40°44' W 074°01'1 0.7
2015-Aug-29 15:33N 40°45' W 074°01'1 1.1
2015-Aug-29 14:33N 40°46' W 074°00'1 0.7
2015-Aug-29 13:33N 40°46' W 074°01'2 0.1
2015-Aug-28 23:33N 40°45' W 074°01'3 2.9
2015-Aug-28 22:33N 40°42' W 074°01'1 0.5
2015-Aug-28 21:33N 40°42' W 074°01'2 1.9
2015-Aug-28 20:33N 40°44' W 074°02'0 0.0
2015-Aug-28 19:33N 40°44' W 074°02'0 0.0
2015-Aug-28 18:33N 40°44' W 074°02'2 2.3
2015-Aug-28 17:33N 40°46' W 074°01'0 0.3
2015-Aug-28 16:33N 40°46' W 074°01'1 1.0
2015-Aug-28 15:33N 40°45' W 074°01'1 1.3
2015-Aug-28 14:33N 40°46' W 074°01'4 4.1
2015-Aug-28 13:33N 40°42' W 074°00'2 1.6
2015-Aug-28 12:33N 40°44' W 074°01'0 0.2
2015-Aug-28 11:34N 40°44' W 074°01'1 0.1
2015-Aug-27 23:33N 40°45' W 074°01'3 3.0
2015-Aug-27 22:33N 40°42' W 074°01'1 0.8
2015-Aug-27 21:33N 40°43' W 074°01'2 1.6
2015-Aug-27 20:33N 40°44' W 074°02'0 0.0
2015-Aug-27 19:33N 40°44' W 074°02'0 0.0
2015-Aug-27 18:33N 40°44' W 074°02'2 1.8
2015-Aug-27 17:34N 40°46' W 074°00'0 0.0
2015-Aug-27 16:33N 40°46' W 074°00'0 0.0
2015-Aug-27 15:33N 40°46' W 074°00'1 0.8
2015-Aug-27 14:33N 40°46' W 074°01'1 0.9
2015-Aug-27 13:33N 40°45' W 074°01'0 0.2
2015-Aug-27 12:33N 40°46' W 074°01'0 0.2
2015-Aug-27 11:33N 40°45' W 074°01'1 1.0
2015-Aug-27 10:33N 40°46' W 074°01'2 0.1
2015-Aug-26 23:34N 40°45' W 074°01'3 2.9
2015-Aug-26 22:33N 40°42' W 074°01'1 0.6
2015-Aug-26 21:33N 40°42' W 074°01'2 1.7
2015-Aug-26 20:34N 40°44' W 074°02'0 0.0
2015-Aug-26 19:33N 40°44' W 074°02'0 0.0
2015-Aug-26 18:33N 40°44' W 074°02'2 0.9
2015-Aug-26 16:33N 40°46' W 074°00'0 0.0
2015-Aug-26 15:33N 40°46' W 074°00'1 0.8
2015-Aug-26 14:33N 40°46' W 074°01'1 0.7
2015-Aug-26 13:33N 40°46' W 074°01'1 0.5
2015-Aug-26 12:33N 40°46' W 074°01'0 0.4
2015-Aug-26 11:33N 40°45' W 074°01'0 0.0
2015-Aug-25 23:34N 40°45' W 074°01'0 0.1
2015-Aug-25 22:34N 40°45' W 074°01'0 0.4
2015-Aug-25 21:33N 40°45' W 074°01'  

Dump ship's entire track history